sensor_id;sensor_type;location;lat;lon;timestamp;pressure;altitude;pressure_sealevel;temperature;humidity
75656;BME280;64252;51.094;13.714;2023-07-09T00:00:17;100748.13;;;20.31;61.83
75656;BME280;64252;51.094;13.714;2023-07-09T00:02:43;100754.69;;;20.31;61.92
75656;BME280;64252;51.094;13.714;2023-07-09T00:05:15;100745.75;;;20.26;62.14
75656;BME280;64252;51.094;13.714;2023-07-09T00:07:43;100744.72;;;20.20;62.55
75656;BME280;64252;51.094;13.714;2023-07-09T00:12:40;100750.59;;;20.12;62.79
75656;BME280;64252;51.094;13.714;2023-07-09T00:15:06;100757.56;;;20.11;62.87
75656;BME280;64252;51.094;13.714;2023-07-09T00:17:35;100756.13;;;20.03;63.47
75656;BME280;64252;51.094;13.714;2023-07-09T00:20:02;100754.69;;;19.95;63.41
75656;BME280;64252;51.094;13.714;2023-07-09T00:22:31;100748.31;;;19.88;64.14
75656;BME280;64252;51.094;13.714;2023-07-09T00:24:57;100746.94;;;19.76;65.39
75656;BME280;64252;51.094;13.714;2023-07-09T00:27:26;100747.09;;;19.69;65.75
75656;BME280;64252;51.094;13.714;2023-07-09T00:29:54;100759.44;;;19.66;65.77
75656;BME280;64252;51.094;13.714;2023-07-09T00:32:20;100744.22;;;19.69;65.43
75656;BME280;64252;51.094;13.714;2023-07-09T00:34:47;100752.47;;;19.67;65.01
75656;BME280;64252;51.094;13.714;2023-07-09T00:37:19;100745.84;;;19.70;65.02
75656;BME280;64252;51.094;13.714;2023-07-09T00:39:46;100752.81;;;19.69;64.72
75656;BME280;64252;51.094;13.714;2023-07-09T00:42:14;100754.53;;;19.66;64.79
75656;BME280;64252;51.094;13.714;2023-07-09T00:44:49;100748.66;;;19.54;66.22
75656;BME280;64252;51.094;13.714;2023-07-09T00:47:31;100752.41;;;19.51;65.71
75656;BME280;64252;51.094;13.714;2023-07-09T00:52:34;100737.72;;;19.49;64.78
75656;BME280;64252;51.094;13.714;2023-07-09T00:55:07;100740.59;;;19.49;64.76
75656;BME280;64252;51.094;13.714;2023-07-09T00:57:37;100744.31;;;19.46;65.08
75656;BME280;64252;51.094;13.714;2023-07-09T01:00:11;100743.50;;;19.45;64.33
75656;BME280;64252;51.094;13.714;2023-07-09T01:02:41;100737.78;;;19.45;64.34
75656;BME280;64252;51.094;13.714;2023-07-09T01:05:11;100746.84;;;19.40;64.54
75656;BME280;64252;51.094;13.714;2023-07-09T01:07:38;100750.91;;;19.43;64.49
75656;BME280;64252;51.094;13.714;2023-07-09T01:10:05;100740.88;;;19.35;65.20
75656;BME280;64252;51.094;13.714;2023-07-09T01:12:33;100736.50;;;19.26;65.34
75656;BME280;64252;51.094;13.714;2023-07-09T01:14:59;100733.81;;;19.19;65.59
75656;BME280;64252;51.094;13.714;2023-07-09T01:17:28;100732.06;;;19.25;65.67
75656;BME280;64252;51.094;13.714;2023-07-09T01:19:55;100742.22;;;19.26;64.76
75656;BME280;64252;51.094;13.714;2023-07-09T01:22:22;100746.00;;;19.23;64.84
75656;BME280;64252;51.094;13.714;2023-07-09T01:27:25;100742.63;;;19.28;64.84
75656;BME280;64252;51.094;13.714;2023-07-09T01:29:54;100743.13;;;19.23;64.88
75656;BME280;64252;51.094;13.714;2023-07-09T01:32:22;100741.72;;;19.12;65.90
75656;BME280;64252;51.094;13.714;2023-07-09T01:34:52;100736.94;;;19.05;66.15
75656;BME280;64252;51.094;13.714;2023-07-09T01:37:25;100731.56;;;19.07;65.75
75656;BME280;64252;51.094;13.714;2023-07-09T01:39:51;100740.63;;;19.06;65.56
75656;BME280;64252;51.094;13.714;2023-07-09T01:42:20;100740.53;;;19.09;64.91
75656;BME280;64252;51.094;13.714;2023-07-09T01:44:50;100742.69;;;19.05;65.40
75656;BME280;64252;51.094;13.714;2023-07-09T01:47:17;100742.78;;;18.98;66.04
75656;BME280;64252;51.094;13.714;2023-07-09T01:49:43;100739.59;;;18.96;66.22
75656;BME280;64252;51.094;13.714;2023-07-09T01:52:14;100736.34;;;18.94;66.05
75656;BME280;64252;51.094;13.714;2023-07-09T01:54:39;100743.81;;;18.88;66.16
75656;BME280;64252;51.094;13.714;2023-07-09T01:57:32;100747.13;;;18.87;66.23
75656;BME280;64252;51.094;13.714;2023-07-09T02:00:02;100738.09;;;18.88;66.12
75656;BME280;64252;51.094;13.714;2023-07-09T02:02:42;100736.50;;;18.87;65.40
75656;BME280;64252;51.094;13.714;2023-07-09T02:05:11;100734.47;;;18.84;65.40
75656;BME280;64252;51.094;13.714;2023-07-09T02:07:38;100738.31;;;18.77;66.44
75656;BME280;64252;51.094;13.714;2023-07-09T02:10:05;100734.19;;;18.78;66.48
75656;BME280;64252;51.094;13.714;2023-07-09T02:12:31;100737.59;;;18.70;67.21
75656;BME280;64252;51.094;13.714;2023-07-09T02:14:57;100739.22;;;18.71;66.85
75656;BME280;64252;51.094;13.714;2023-07-09T02:17:23;100740.13;;;18.68;67.28
75656;BME280;64252;51.094;13.714;2023-07-09T02:19:51;100737.75;;;18.63;67.52
75656;BME280;64252;51.094;13.714;2023-07-09T02:22:16;100729.66;;;18.58;68.13
75656;BME280;64252;51.094;13.714;2023-07-09T02:24:44;100728.03;;;18.57;68.05
75656;BME280;64252;51.094;13.714;2023-07-09T02:27:11;100730.06;;;18.60;68.25
75656;BME280;64252;51.094;13.714;2023-07-09T02:29:37;100737.84;;;18.56;68.17
75656;BME280;64252;51.094;13.714;2023-07-09T02:32:05;100736.19;;;18.58;68.54
75656;BME280;64252;51.094;13.714;2023-07-09T02:34:31;100734.56;;;18.57;68.45
75656;BME280;64252;51.094;13.714;2023-07-09T02:36:58;100734.22;;;18.52;68.78
75656;BME280;64252;51.094;13.714;2023-07-09T02:39:25;100734.78;;;18.43;69.06
75656;BME280;64252;51.094;13.714;2023-07-09T02:41:50;100746.22;;;18.43;68.88
75656;BME280;64252;51.094;13.714;2023-07-09T02:44:16;100750.38;;;18.38;69.21
75656;BME280;64252;51.094;13.714;2023-07-09T02:46:43;100752.00;;;18.39;68.93
75656;BME280;64252;51.094;13.714;2023-07-09T02:49:12;100746.28;;;18.39;68.83
75656;BME280;64252;51.094;13.714;2023-07-09T02:51:39;100740.19;;;18.37;68.99
75656;BME280;64252;51.094;13.714;2023-07-09T02:54:05;100740.94;;;18.41;69.04
75656;BME280;64252;51.094;13.714;2023-07-09T02:56:31;100745.47;;;18.39;68.85
75656;BME280;64252;51.094;13.714;2023-07-09T02:58:57;100744.66;;;18.38;68.85
75656;BME280;64252;51.094;13.714;2023-07-09T03:01:23;100744.66;;;18.38;69.04
75656;BME280;64252;51.094;13.714;2023-07-09T03:03:57;100751.28;;;18.35;69.00
75656;BME280;64252;51.094;13.714;2023-07-09T03:06:26;100743.94;;;18.34;68.83
75656;BME280;64252;51.094;13.714;2023-07-09T03:08:52;100743.13;;;18.34;69.09
75656;BME280;64252;51.094;13.714;2023-07-09T03:11:20;100755.91;;;18.26;69.00
75656;BME280;64252;51.094;13.714;2023-07-09T03:13:46;100755.09;;;18.25;68.93
75656;BME280;64252;51.094;13.714;2023-07-09T03:16:13;100766.09;;;18.27;69.17
75656;BME280;64252;51.094;13.714;2023-07-09T03:18:39;100758.88;;;18.19;69.72
75656;BME280;64252;51.094;13.714;2023-07-09T03:21:05;100762.94;;;18.21;69.25
75656;BME280;64252;51.094;13.714;2023-07-09T03:23:31;100760.81;;;18.25;68.90
75656;BME280;64252;51.094;13.714;2023-07-09T03:25:56;100762.94;;;18.21;69.53
75656;BME280;64252;51.094;13.714;2023-07-09T03:28:23;100769.06;;;18.20;69.70
75656;BME280;64252;51.094;13.714;2023-07-09T03:30:49;100773.56;;;18.21;69.15
75656;BME280;64252;51.094;13.714;2023-07-09T03:33:20;100770.31;;;18.19;69.49
75656;BME280;64252;51.094;13.714;2023-07-09T03:35:46;100764.03;;;18.27;69.06
75656;BME280;64252;51.094;13.714;2023-07-09T03:38:13;100771.78;;;18.30;68.99
75656;BME280;64252;51.094;13.714;2023-07-09T03:40:41;100766.47;;;18.29;68.95
75656;BME280;64252;51.094;13.714;2023-07-09T03:43:08;100762.81;;;18.28;68.13
75656;BME280;64252;51.094;13.714;2023-07-09T03:45:36;100772.03;;;18.39;67.98
75656;BME280;64252;51.094;13.714;2023-07-09T03:48:08;100767.53;;;18.38;67.81
75656;BME280;64252;51.094;13.714;2023-07-09T03:50:33;100766.56;;;18.49;67.26
75656;BME280;64252;51.094;13.714;2023-07-09T03:52:59;100776.78;;;18.50;67.60
75656;BME280;64252;51.094;13.714;2023-07-09T03:55:25;100773.44;;;18.51;67.37
75656;BME280;64252;51.094;13.714;2023-07-09T03:57:53;100775.44;;;18.58;66.95
75656;BME280;64252;51.094;13.714;2023-07-09T04:00:19;100774.56;;;18.61;66.37
75656;BME280;64252;51.094;13.714;2023-07-09T04:02:45;100776.56;;;18.64;66.38
75656;BME280;64252;51.094;13.714;2023-07-09T04:05:11;100776.81;;;18.73;66.50
75656;BME280;64252;51.094;13.714;2023-07-09T04:07:37;100775.13;;;18.75;65.96
75656;BME280;64252;51.094;13.714;2023-07-09T04:10:04;100778.34;;;18.77;66.65
75656;BME280;64252;51.094;13.714;2023-07-09T04:12:31;100781.53;;;18.83;66.04
75656;BME280;64252;51.094;13.714;2023-07-09T04:14:56;100774.78;;;18.93;65.19
75656;BME280;64252;51.094;13.714;2023-07-09T04:17:22;100773.94;;;18.96;66.27
75656;BME280;64252;51.094;13.714;2023-07-09T04:19:50;100773.19;;;18.92;66.39
75656;BME280;64252;51.094;13.714;2023-07-09T04:22:16;100777.28;;;18.91;65.45
75656;BME280;64252;51.094;13.714;2023-07-09T04:24:43;100779.50;;;19.03;65.57
75656;BME280;64252;51.094;13.714;2023-07-09T04:27:09;100782.81;;;19.02;65.10
75656;BME280;64252;51.094;13.714;2023-07-09T04:29:35;100779.50;;;19.03;64.80
75656;BME280;64252;51.094;13.714;2023-07-09T04:32:05;100788.31;;;19.12;64.53
75656;BME280;64252;51.094;13.714;2023-07-09T04:34:31;100775.13;;;19.18;64.86
75656;BME280;64252;51.094;13.714;2023-07-09T04:37:03;100782.31;;;19.26;64.94
75656;BME280;64252;51.094;13.714;2023-07-09T04:39:29;100794.09;;;19.32;64.13
75656;BME280;64252;51.094;13.714;2023-07-09T04:41:54;100790.91;;;19.26;64.44
75656;BME280;64252;51.094;13.714;2023-07-09T04:44:20;100787.75;;;19.41;63.67
75656;BME280;64252;51.094;13.714;2023-07-09T04:46:46;100793.25;;;19.55;63.52
75656;BME280;64252;51.094;13.714;2023-07-09T04:49:12;100791.69;;;19.70;63.43
75656;BME280;64252;51.094;13.714;2023-07-09T04:51:37;100791.81;;;19.83;62.67
75656;BME280;64252;51.094;13.714;2023-07-09T04:54:03;100791.75;;;19.86;62.98
75656;BME280;64252;51.094;13.714;2023-07-09T04:56:29;100803.06;;;19.93;62.19
75656;BME280;64252;51.094;13.714;2023-07-09T04:58:56;100803.41;;;20.15;61.29
75656;BME280;64252;51.094;13.714;2023-07-09T05:01:23;100813.88;;;20.22;61.26
75656;BME280;64252;51.094;13.714;2023-07-09T05:03:49;100808.94;;;20.42;60.44
75656;BME280;64252;51.094;13.714;2023-07-09T05:06:15;100804.28;;;20.48;60.60
75656;BME280;64252;51.094;13.714;2023-07-09T05:08:41;100803.75;;;20.69;59.66
75656;BME280;64252;51.094;13.714;2023-07-09T05:11:08;100808.53;;;21.37;57.93
75656;BME280;64252;51.094;13.714;2023-07-09T05:13:36;100800.44;;;24.25;50.39
75656;BME280;64252;51.094;13.714;2023-07-09T05:16:02;100811.72;;;26.36;44.02
75656;BME280;64252;51.094;13.714;2023-07-09T05:18:28;100797.22;;;28.17;39.76
75656;BME280;64252;51.094;13.714;2023-07-09T05:20:54;100794.03;;;28.15;39.75
75656;BME280;64252;51.094;13.714;2023-07-09T05:23:21;100806.34;;;29.29;37.84
75656;BME280;64252;51.094;13.714;2023-07-09T05:25:47;100810.59;;;29.89;36.60
75656;BME280;64252;51.094;13.714;2023-07-09T05:28:13;100811.00;;;30.33;35.72
75656;BME280;64252;51.094;13.714;2023-07-09T05:30:41;100818.75;;;30.68;34.97
75656;BME280;64252;51.094;13.714;2023-07-09T05:33:07;100817.56;;;30.91;34.77
75656;BME280;64252;51.094;13.714;2023-07-09T05:35:33;100810.63;;;30.20;35.18
75656;BME280;64252;51.094;13.714;2023-07-09T05:37:59;100818.66;;;32.17;32.52
75656;BME280;64252;51.094;13.714;2023-07-09T05:40:24;100813.38;;;32.44;31.24
75656;BME280;64252;51.094;13.714;2023-07-09T05:42:50;100818.03;;;33.36;30.60
75656;BME280;64252;51.094;13.714;2023-07-09T05:45:16;100819.13;;;34.67;29.18
75656;BME280;64252;51.094;13.714;2023-07-09T05:47:42;100813.63;;;32.74;31.14
75656;BME280;64252;51.094;13.714;2023-07-09T05:50:08;100817.00;;;30.87;33.88
75656;BME280;64252;51.094;13.714;2023-07-09T05:52:37;100813.53;;;30.83;35.05
75656;BME280;64252;51.094;13.714;2023-07-09T05:55:03;100816.84;;;31.50;32.46
75656;BME280;64252;51.094;13.714;2023-07-09T05:57:29;100817.59;;;32.59;31.47
75656;BME280;64252;51.094;13.714;2023-07-09T05:59:54;100817.38;;;33.65;30.83
75656;BME280;64252;51.094;13.714;2023-07-09T06:02:20;100808.94;;;33.50;31.39
75656;BME280;64252;51.094;13.714;2023-07-09T06:04:47;100816.31;;;33.68;29.87
75656;BME280;64252;51.094;13.714;2023-07-09T06:07:16;100819.97;;;34.26;30.07
75656;BME280;64252;51.094;13.714;2023-07-09T06:09:44;100812.16;;;33.99;29.02
75656;BME280;64252;51.094;13.714;2023-07-09T06:12:11;100813.47;;;33.98;29.25
75656;BME280;64252;51.094;13.714;2023-07-09T06:14:37;100812.47;;;33.32;29.79
75656;BME280;64252;51.094;13.714;2023-07-09T06:17:03;100812.88;;;34.46;28.70
75656;BME280;64252;51.094;13.714;2023-07-09T06:19:29;100817.41;;;34.06;28.82
75656;BME280;64252;51.094;13.714;2023-07-09T06:21:55;100817.81;;;34.92;28.10
75656;BME280;64252;51.094;13.714;2023-07-09T06:24:22;100813.97;;;34.08;29.81
75656;BME280;64252;51.094;13.714;2023-07-09T06:26:48;100814.28;;;35.23;27.09
75656;BME280;64252;51.094;13.714;2023-07-09T06:29:14;100813.63;;;34.17;27.58
75656;BME280;64252;51.094;13.714;2023-07-09T06:31:40;100816.94;;;34.73;29.22
75656;BME280;64252;51.094;13.714;2023-07-09T06:34:08;100817.06;;;35.10;27.92
75656;BME280;64252;51.094;13.714;2023-07-09T06:36:35;100814.53;;;35.69;26.81
75656;BME280;64252;51.094;13.714;2023-07-09T06:39:02;100826.81;;;35.24;26.86
75656;BME280;64252;51.094;13.714;2023-07-09T06:41:28;100815.88;;;36.05;25.54
75656;BME280;64252;51.094;13.714;2023-07-09T06:43:54;100821.63;;;35.97;26.88
75656;BME280;64252;51.094;13.714;2023-07-09T06:46:20;100822.25;;;34.99;27.45
75656;BME280;64252;51.094;13.714;2023-07-09T06:48:46;100827.72;;;32.86;29.09
75656;BME280;64252;51.094;13.714;2023-07-09T06:51:12;100827.59;;;34.00;28.82
75656;BME280;64252;51.094;13.714;2023-07-09T06:53:38;100824.69;;;34.70;28.01
75656;BME280;64252;51.094;13.714;2023-07-09T06:56:05;100830.06;;;34.31;28.25
75656;BME280;64252;51.094;13.714;2023-07-09T06:58:37;100830.97;;;35.10;27.13
75656;BME280;64252;51.094;13.714;2023-07-09T07:01:06;100827.13;;;34.31;27.85
75656;BME280;64252;51.094;13.714;2023-07-09T07:03:32;100822.78;;;35.03;28.15
75656;BME280;64252;51.094;13.714;2023-07-09T07:05:59;100836.38;;;36.29;26.02
75656;BME280;64252;51.094;13.714;2023-07-09T07:08:25;100827.56;;;36.29;26.96
75656;BME280;64252;51.094;13.714;2023-07-09T07:10:57;100829.13;;;35.07;27.51
75656;BME280;64252;51.094;13.714;2023-07-09T07:13:35;100825.03;;;35.83;27.23
75656;BME280;64252;51.094;13.714;2023-07-09T07:16:03;100820.13;;;36.41;26.89
75656;BME280;64252;51.094;13.714;2023-07-09T07:18:29;100826.91;;;36.36;26.25
75656;BME280;64252;51.094;13.714;2023-07-09T07:20:55;100824.91;;;36.76;25.76
75656;BME280;64252;51.094;13.714;2023-07-09T07:23:21;100816.91;;;36.07;27.11
75656;BME280;64252;51.094;13.714;2023-07-09T07:25:48;100819.13;;;36.39;26.50
75656;BME280;64252;51.094;13.714;2023-07-09T07:28:14;100814.22;;;37.31;26.63
75656;BME280;64252;51.094;13.714;2023-07-09T07:30:40;100827.31;;;36.59;27.15
75656;BME280;64252;51.094;13.714;2023-07-09T07:33:06;100814.75;;;37.04;26.08
75656;BME280;64252;51.094;13.714;2023-07-09T07:35:32;100825.97;;;36.28;25.63
75656;BME280;64252;51.094;13.714;2023-07-09T07:37:58;100830.03;;;36.06;25.82
75656;BME280;64252;51.094;13.714;2023-07-09T07:40:23;100822.50;;;35.92;27.50
75656;BME280;64252;51.094;13.714;2023-07-09T07:42:49;100819.63;;;35.68;27.98
75656;BME280;64252;51.094;13.714;2023-07-09T07:45:15;100814.28;;;36.55;26.32
75656;BME280;64252;51.094;13.714;2023-07-09T07:47:41;100808.09;;;37.29;25.42
75656;BME280;64252;51.094;13.714;2023-07-09T07:50:08;100820.66;;;37.04;26.41
75656;BME280;64252;51.094;13.714;2023-07-09T07:52:33;100812.59;;;36.91;26.67
75656;BME280;64252;51.094;13.714;2023-07-09T07:55:07;100812.81;;;37.85;24.04
75656;BME280;64252;51.094;13.714;2023-07-09T07:57:33;100808.59;;;37.94;23.57
75656;BME280;64252;51.094;13.714;2023-07-09T08:00:00;100803.13;;;37.24;23.95
75656;BME280;64252;51.094;13.714;2023-07-09T08:02:26;100797.88;;;37.44;25.42
75656;BME280;64252;51.094;13.714;2023-07-09T08:04:52;100804.69;;;37.65;25.19
75656;BME280;64252;51.094;13.714;2023-07-09T08:07:19;100811.97;;;37.38;25.08
75656;BME280;64252;51.094;13.714;2023-07-09T08:09:45;100812.88;;;36.61;26.17
75656;BME280;64252;51.094;13.714;2023-07-09T08:12:14;100818.94;;;35.56;27.69
75656;BME280;64252;51.094;13.714;2023-07-09T08:14:42;100808.56;;;34.23;32.00
75656;BME280;64252;51.094;13.714;2023-07-09T08:17:09;100802.69;;;34.53;29.61
75656;BME280;64252;51.094;13.714;2023-07-09T08:19:46;100807.09;;;34.00;30.89
75656;BME280;64252;51.094;13.714;2023-07-09T08:22:13;100801.28;;;33.88;31.31
75656;BME280;64252;51.094;13.714;2023-07-09T08:24:39;100799.13;;;33.94;31.33
75656;BME280;64252;51.094;13.714;2023-07-09T08:27:07;100793.81;;;33.87;31.32
75656;BME280;64252;51.094;13.714;2023-07-09T08:29:34;100792.47;;;33.42;30.96
75656;BME280;64252;51.094;13.714;2023-07-09T08:32:00;100789.56;;;33.36;31.60
75656;BME280;64252;51.094;13.714;2023-07-09T08:34:26;100792.94;;;33.57;31.22
75656;BME280;64252;51.094;13.714;2023-07-09T08:36:52;100785.78;;;33.47;31.01
75656;BME280;64252;51.094;13.714;2023-07-09T08:39:17;100784.50;;;33.37;31.21
75656;BME280;64252;51.094;13.714;2023-07-09T08:41:48;100780.50;;;33.34;30.74
75656;BME280;64252;51.094;13.714;2023-07-09T08:50:14;100786.69;;;33.08;29.67
75656;BME280;64252;51.094;13.714;2023-07-09T08:52:46;100784.00;;;33.22;30.16
75656;BME280;64252;51.094;13.714;2023-07-09T08:55:27;100781.91;;;33.05;32.89
75656;BME280;64252;51.094;13.714;2023-07-09T08:57:58;100781.81;;;33.39;31.10
75656;BME280;64252;51.094;13.714;2023-07-09T09:00:33;100778.88;;;33.39;30.46
75656;BME280;64252;51.094;13.714;2023-07-09T09:03:27;100784.19;;;33.46;28.65
75656;BME280;64252;51.094;13.714;2023-07-09T09:05:55;100782.13;;;33.82;29.70
75656;BME280;64252;51.094;13.714;2023-07-09T09:11:10;100778.69;;;33.83;28.83
75656;BME280;64252;51.094;13.714;2023-07-09T09:13:38;100771.00;;;34.10;29.58
75656;BME280;64252;51.094;13.714;2023-07-09T09:16:19;100774.22;;;34.12;28.98
75656;BME280;64252;51.094;13.714;2023-07-09T09:18:47;100772.75;;;34.30;28.74
75656;BME280;64252;51.094;13.714;2023-07-09T09:21:21;100776.94;;;34.40;28.02
75656;BME280;64252;51.094;13.714;2023-07-09T09:23:52;100781.69;;;34.43;28.91
75656;BME280;64252;51.094;13.714;2023-07-09T09:26:41;100781.25;;;34.33;27.39
75656;BME280;64252;51.094;13.714;2023-07-09T09:29:15;100777.03;;;34.29;26.92
75656;BME280;64252;51.094;13.714;2023-07-09T09:31:46;100777.16;;;34.42;26.76
75656;BME280;64252;51.094;13.714;2023-07-09T09:34:22;100777.72;;;33.59;26.66
75656;BME280;64252;51.094;13.714;2023-07-09T09:36:50;100768.69;;;34.03;26.75
75656;BME280;64252;51.094;13.714;2023-07-09T09:39:17;100767.00;;;33.72;25.42
75656;BME280;64252;51.094;13.714;2023-07-09T09:41:44;100763.50;;;34.20;25.81
75656;BME280;64252;51.094;13.714;2023-07-09T09:44:24;100763.47;;;34.26;26.63
75656;BME280;64252;51.094;13.714;2023-07-09T09:46:51;100767.03;;;34.43;27.32
75656;BME280;64252;51.094;13.714;2023-07-09T09:49:17;100771.91;;;34.35;27.69
75656;BME280;64252;51.094;13.714;2023-07-09T09:51:45;100766.25;;;33.66;28.55
75656;BME280;64252;51.094;13.714;2023-07-09T09:54:14;100764.13;;;33.61;29.06
75656;BME280;64252;51.094;13.714;2023-07-09T09:56:42;100761.84;;;33.89;28.62
75656;BME280;64252;51.094;13.714;2023-07-09T09:59:24;100760.84;;;34.17;27.89
75656;BME280;64252;51.094;13.714;2023-07-09T10:01:58;100761.44;;;34.45;27.00
75656;BME280;64252;51.094;13.714;2023-07-09T10:04:25;100756.75;;;34.31;27.54
75656;BME280;64252;51.094;13.714;2023-07-09T10:06:54;100756.75;;;34.61;27.11
75656;BME280;64252;51.094;13.714;2023-07-09T10:09:36;100760.44;;;34.67;26.88
75656;BME280;64252;51.094;13.714;2023-07-09T10:22:57;100761.38;;;34.15;24.79
75656;BME280;64252;51.094;13.714;2023-07-09T10:37:22;100754.47;;;34.13;22.67
75656;BME280;64252;51.094;13.714;2023-07-09T10:39:58;100751.06;;;34.38;24.34
75656;BME280;64252;51.094;13.714;2023-07-09T10:42:29;100750.84;;;34.01;23.58
75656;BME280;64252;51.094;13.714;2023-07-09T10:45:02;100744.19;;;34.36;24.93
75656;BME280;64252;51.094;13.714;2023-07-09T10:47:35;100745.81;;;34.31;24.07
75656;BME280;64252;51.094;13.714;2023-07-09T10:50:05;100748.66;;;34.72;24.34
75656;BME280;64252;51.094;13.714;2023-07-09T10:52:37;100745.28;;;34.57;23.61
75656;BME280;64252;51.094;13.714;2023-07-09T10:55:28;100740.06;;;34.15;23.68
75656;BME280;64252;51.094;13.714;2023-07-09T10:58:25;100736.63;;;34.11;23.35
75656;BME280;64252;51.094;13.714;2023-07-09T11:00:57;100744.84;;;33.82;23.64
75656;BME280;64252;51.094;13.714;2023-07-09T11:03:35;100741.47;;;34.08;23.28
75656;BME280;64252;51.094;13.714;2023-07-09T11:06:05;100751.38;;;34.35;23.50
75656;BME280;64252;51.094;13.714;2023-07-09T11:08:38;100744.13;;;34.42;23.51
75656;BME280;64252;51.094;13.714;2023-07-09T11:11:10;100744.53;;;34.27;22.55
75656;BME280;64252;51.094;13.714;2023-07-09T11:13:41;100740.84;;;34.21;23.32
75656;BME280;64252;51.094;13.714;2023-07-09T11:16:14;100740.75;;;34.32;22.82
75656;BME280;64252;51.094;13.714;2023-07-09T11:18:54;100737.47;;;34.41;23.39
75656;BME280;64252;51.094;13.714;2023-07-09T11:21:21;100734.19;;;34.50;24.08
75656;BME280;64252;51.094;13.714;2023-07-09T11:23:54;100737.06;;;34.56;22.91
75656;BME280;64252;51.094;13.714;2023-07-09T11:26:34;100721.97;;;34.46;23.95
75656;BME280;64252;51.094;13.714;2023-07-09T11:29:16;100723.53;;;34.47;22.35
75656;BME280;64252;51.094;13.714;2023-07-09T11:31:44;100715.88;;;34.68;23.76
75656;BME280;64252;51.094;13.714;2023-07-09T11:39:26;100715.81;;;34.74;24.39
75656;BME280;64252;51.094;13.714;2023-07-09T11:41:53;100715.00;;;34.98;23.56
75656;BME280;64252;51.094;13.714;2023-07-09T11:44:45;100710.03;;;35.11;22.88
75656;BME280;64252;51.094;13.714;2023-07-09T11:47:19;100710.66;;;34.80;21.98
75656;BME280;64252;51.094;13.714;2023-07-09T11:50:09;100697.53;;;34.87;23.11
75656;BME280;64252;51.094;13.714;2023-07-09T11:52:43;100692.97;;;34.61;22.76
75656;BME280;64252;51.094;13.714;2023-07-09T11:57:47;100699.34;;;34.41;23.39
75656;BME280;64252;51.094;13.714;2023-07-09T12:00:15;100695.13;;;34.36;23.16
75656;BME280;64252;51.094;13.714;2023-07-09T12:02:42;100686.88;;;34.35;23.34
75656;BME280;64252;51.094;13.714;2023-07-09T12:05:08;100690.81;;;34.67;22.76
75656;BME280;64252;51.094;13.714;2023-07-09T12:07:34;100697.03;;;34.58;23.43
75656;BME280;64252;51.094;13.714;2023-07-09T12:10:03;100693.06;;;34.80;22.70
75656;BME280;64252;51.094;13.714;2023-07-09T12:12:29;100692.69;;;34.65;22.83
75656;BME280;64252;51.094;13.714;2023-07-09T12:17:30;100682.34;;;35.07;23.46
75656;BME280;64252;51.094;13.714;2023-07-09T12:22:44;100680.06;;;34.94;23.37
75656;BME280;64252;51.094;13.714;2023-07-09T12:25:29;100671.69;;;35.04;23.31
75656;BME280;64252;51.094;13.714;2023-07-09T12:27:58;100672.69;;;34.88;23.11
75656;BME280;64252;51.094;13.714;2023-07-09T12:30:24;100665.72;;;34.91;22.96
75656;BME280;64252;51.094;13.714;2023-07-09T12:32:50;100669.00;;;35.06;23.86
75656;BME280;64252;51.094;13.714;2023-07-09T12:35:19;100666.94;;;35.01;23.41
75656;BME280;64252;51.094;13.714;2023-07-09T12:37:50;100663.72;;;34.99;23.40
75656;BME280;64252;51.094;13.714;2023-07-09T12:40:23;100661.13;;;35.14;22.32
75656;BME280;64252;51.094;13.714;2023-07-09T12:42:53;100657.56;;;35.02;24.08
75656;BME280;64252;51.094;13.714;2023-07-09T12:45:20;100665.13;;;34.73;23.17
75656;BME280;64252;51.094;13.714;2023-07-09T12:47:48;100653.25;;;34.85;22.10
75656;BME280;64252;51.094;13.714;2023-07-09T12:50:22;100658.66;;;34.99;22.87
75656;BME280;64252;51.094;13.714;2023-07-09T12:52:55;100648.81;;;35.21;22.45
75656;BME280;64252;51.094;13.714;2023-07-09T12:55:23;100644.84;;;34.94;22.51
75656;BME280;64252;51.094;13.714;2023-07-09T12:57:51;100645.25;;;35.04;22.67
75656;BME280;64252;51.094;13.714;2023-07-09T13:00:20;100642.94;;;35.21;24.33
75656;BME280;64252;51.094;13.714;2023-07-09T13:02:53;100640.00;;;35.21;24.60
75656;BME280;64252;51.094;13.714;2023-07-09T13:05:21;100639.47;;;34.79;22.59
75656;BME280;64252;51.094;13.714;2023-07-09T13:07:59;100639.66;;;35.25;22.93
75656;BME280;64252;51.094;13.714;2023-07-09T13:10:38;100639.00;;;35.13;22.74
75656;BME280;64252;51.094;13.714;2023-07-09T13:13:05;100629.50;;;35.44;24.06
75656;BME280;64252;51.094;13.714;2023-07-09T13:18:04;100635.16;;;34.80;23.07
75656;BME280;64252;51.094;13.714;2023-07-09T13:20:32;100639.97;;;35.02;24.13
75656;BME280;64252;51.094;13.714;2023-07-09T13:22:59;100640.75;;;35.03;23.24
75656;BME280;64252;51.094;13.714;2023-07-09T13:25:24;100635.56;;;35.09;22.63
75656;BME280;64252;51.094;13.714;2023-07-09T13:27:51;100634.72;;;35.14;22.67
75656;BME280;64252;51.094;13.714;2023-07-09T13:30:20;100633.44;;;35.09;23.08
75656;BME280;64252;51.094;13.714;2023-07-09T13:32:48;100632.03;;;35.35;23.16
75656;BME280;64252;51.094;13.714;2023-07-09T13:35:14;100638.25;;;35.31;21.83
75656;BME280;64252;51.094;13.714;2023-07-09T13:37:41;100633.31;;;35.20;22.20
75656;BME280;64252;51.094;13.714;2023-07-09T13:40:11;100639.50;;;35.36;23.10
75656;BME280;64252;51.094;13.714;2023-07-09T13:42:37;100633.78;;;35.43;22.48